Time;durP1;ratioP1;P1;durP2;ratioP2;P2;SDS_P1;SDS_P2;PMS_P1;PMS_P2;Temp;Humidity;BMP_temperature;BMP_pressure;BME280_temperature;BME280_humidity;BME280_pressure;Samples;Min_cycle;Max_cycle;Signal;HPM_P1;HPM_P2
2022/09/08 00:02:25;;;;;;;21.80;6.75;;;;;;;25.39;50.77;101052.44;5051095;28;20441;-56
2022/09/08 00:04:51;;;;;;;22.05;6.80;;;;;;;25.15;51.72;101056.13;5051056;28;20045;-56
2022/09/08 00:07:18;;;;;;;26.52;7.57;;;;;;;24.92;52.04;101054.22;5053639;28;20495;-57
2022/09/08 00:09:44;;;;;;;22.17;7.63;;;;;;;25.15;51.90;101047.06;5054565;28;20065;-57
2022/09/08 00:12:12;;;;;;;24.70;7.00;;;;;;;24.95;52.28;101043.50;5054469;28;20378;-56
2022/09/08 00:14:38;;;;;;;27.42;7.40;;;;;;;24.43;52.63;101033.56;5054884;28;20036;-56
2022/09/08 00:17:04;;;;;;;23.08;7.05;;;;;;;24.19;53.83;101041.78;5054545;28;20033;-56
2022/09/08 00:19:30;;;;;;;23.52;7.70;;;;;;;24.39;53.63;101040.75;5054949;28;20029;-55
2022/09/08 00:21:57;;;;;;;21.98;7.55;;;;;;;24.03;54.46;101034.88;5054287;28;20031;-55
2022/09/08 00:24:23;;;;;;;20.58;6.82;;;;;;;23.87;55.06;101034.22;5053879;28;20242;-55
2022/09/08 00:26:49;;;;;;;20.77;6.65;;;;;;;24.20;53.65;101040.69;5053963;28;20041;-55
2022/09/08 00:29:15;;;;;;;26.63;7.40;;;;;;;23.99;54.31;101023.72;5054420;28;20029;-55
2022/09/08 00:31:42;;;;;;;22.55;7.95;;;;;;;23.69;54.97;101031.13;5054320;28;20078;-55
2022/09/08 00:34:09;;;;;;;23.65;7.75;;;;;;;23.97;54.85;101026.72;5054288;28;20518;-55
2022/09/08 00:36:35;;;;;;;22.30;7.75;;;;;;;23.93;54.72;101025.69;5053255;28;20388;-55
2022/09/08 00:39:01;;;;;;;24.90;7.40;;;;;;;23.78;55.26;101023.13;5053985;28;20029;-55
2022/09/08 00:41:28;;;;;;;18.27;7.15;;;;;;;23.81;55.04;101021.72;5053592;28;20094;-55
2022/09/08 00:44:00;;;;;;;23.05;7.72;;;;;;;23.39;55.83;101015.84;5053799;28;20025;-55
2022/09/08 00:46:36;;;;;;;26.23;7.82;;;;;;;23.18;56.21;101030.78;5053516;28;20036;-55
2022/09/08 00:49:11;;;;;;;21.38;7.30;;;;;;;23.28;56.21;101008.03;5053865;28;20060;-55
2022/09/08 00:51:42;;;;;;;20.02;6.72;;;;;;;23.33;55.39;101019.72;5053661;28;20033;-56
2022/09/08 00:54:13;;;;;;;20.65;6.75;;;;;;;23.06;56.07;101016.69;5053773;28;20032;-56
2022/09/08 00:56:41;;;;;;;28.00;7.60;;;;;;;23.16;55.68;101011.94;5053253;28;20033;-56
2022/09/08 00:59:12;;;;;;;18.25;6.55;;;;;;;23.40;54.86;101001.06;5053633;28;20457;-56
2022/09/08 01:01:41;;;;;;;25.08;7.45;;;;;;;23.43;55.05;101013.31;5053701;28;20035;-55
2022/09/08 01:04:09;;;;;;;21.55;7.20;;;;;;;23.35;55.37;101006.59;5053067;28;20048;-56
2022/09/08 01:12:52;;;;;;;19.55;7.20;;;;;;;23.33;55.14;100997.88;5041477;28;20039;-54
2022/09/08 01:15:20;;;;;;;24.13;7.60;;;;;;;23.27;55.40;101009.94;5039328;28;20063;-51
2022/09/08 01:17:48;;;;;;;18.45;6.95;;;;;;;23.20;55.58;101001.25;5044606;28;20025;-52
2022/09/08 01:20:16;;;;;;;19.20;6.65;;;;;;;23.13;55.78;101004.31;5042760;28;20498;-54
2022/09/08 01:22:59;;;;;;;18.33;6.72;;;;;;;23.09;55.59;100997.78;5042395;28;20116;-53
2022/09/08 01:25:31;;;;;;;19.63;6.93;;;;;;;23.18;55.24;101001.53;5032621;28;20392;-53
2022/09/08 01:28:14;;;;;;;22.25;6.90;;;;;;;23.21;55.53;101007.53;5042927;28;20480;-53
2022/09/08 01:30:42;;;;;;;17.00;6.95;;;;;;;23.41;55.12;100997.22;5032856;28;20152;-53
2022/09/08 01:33:11;;;;;;;21.25;6.90;;;;;;;23.25;55.21;100994.94;5065473;28;20047;-53
2022/09/08 01:35:38;;;;;;;18.33;6.88;;;;;;;23.08;55.70;100987.16;5072419;28;20025;-53
2022/09/08 01:38:06;;;;;;;19.58;6.50;;;;;;;23.05;55.94;100995.94;5072148;28;20078;-53
2022/09/08 01:40:32;;;;;;;23.08;6.90;;;;;;;23.02;55.80;100988.31;5051449;28;20029;-52
2022/09/08 01:42:58;;;;;;;21.17;6.90;;;;;;;23.00;56.19;100985.06;5041035;28;20567;-50
2022/09/08 01:45:27;;;;;;;20.00;6.85;;;;;;;23.05;56.15;100982.28;5031635;28;20128;-53
2022/09/08 01:47:54;;;;;;;18.20;7.00;;;;;;;23.05;56.25;100988.56;5035816;28;20033;-53
2022/09/08 01:50:21;;;;;;;20.33;7.15;;;;;;;22.92;56.54;100990.00;5032613;28;20021;-52
2022/09/08 01:52:47;;;;;;;16.20;7.32;;;;;;;23.09;56.19;100988.78;5038852;28;20515;-53
2022/09/08 01:55:13;;;;;;;21.05;7.70;;;;;;;22.99;57.00;100978.78;5038705;28;20060;-54
2022/09/08 01:57:40;;;;;;;20.30;6.65;;;;;;;22.85;57.46;100983.22;5042551;28;20037;-54
2022/09/08 02:00:07;;;;;;;19.67;6.88;;;;;;;22.65;57.40;100973.25;5031057;28;20021;-53
2022/09/08 02:02:33;;;;;;;19.00;7.03;;;;;;;22.74;57.17;100974.28;5036023;28;20595;-53
2022/09/08 02:05:00;;;;;;;21.33;7.03;;;;;;;22.80;57.04;100977.81;5032258;28;20082;-54
2022/09/08 02:07:26;;;;;;;20.02;7.60;;;;;;;22.86;56.71;100984.84;5032208;28;20041;-53
2022/09/08 02:09:53;;;;;;;25.83;7.78;;;;;;;22.77;56.75;100986.56;5031809;28;20021;-53
2022/09/08 02:12:19;;;;;;;20.13;7.25;;;;;;;22.45;57.80;100979.69;5044203;28;20025;-52
2022/09/08 02:14:45;;;;;;;24.58;7.53;;;;;;;22.29;58.57;100986.31;5032928;28;20216;-50
2022/09/08 02:17:12;;;;;;;22.80;7.53;;;;;;;22.00;59.51;101000.59;5037728;28;20346;-53
2022/09/08 02:19:38;;;;;;;21.95;7.85;;;;;;;21.87;60.23;100996.53;5038506;28;20033;-53
2022/09/08 02:22:04;;;;;;;26.90;7.80;;;;;;;21.96;59.58;100998.69;5046832;28;20063;-54
2022/09/08 02:24:32;;;;;;;33.78;8.80;;;;;;;21.98;59.63;101002.75;5039257;28;20117;-54
2022/09/08 02:26:59;;;;;;;23.02;7.13;;;;;;;21.78;60.03;100994.66;5050305;28;20085;-53
2022/09/08 02:29:26;;;;;;;22.45;7.38;;;;;;;21.93;59.21;101008.25;5044742;28;20024;-54
2022/09/08 02:31:52;;;;;;;20.30;7.30;;;;;;;21.66;59.90;101003.16;5036001;28;20033;-55
2022/09/08 02:34:18;;;;;;;23.58;7.18;;;;;;;21.65;59.68;101000.69;5049116;28;20028;-53
2022/09/08 02:36:44;;;;;;;24.52;8.27;;;;;;;21.47;59.97;100999.34;5041971;28;20055;-54
2022/09/08 02:39:16;;;;;;;25.67;7.90;;;;;;;21.64;59.50;101001.78;5038124;28;20435;-53
2022/09/08 02:41:42;;;;;;;22.63;7.93;;;;;;;21.70;59.02;101008.84;5032641;28;20415;-54
2022/09/08 02:44:12;;;;;;;18.17;7.57;;;;;;;21.55;60.23;101012.44;5035560;28;20029;-54
2022/09/08 02:46:39;;;;;;;20.25;7.70;;;;;;;21.46;60.63;101001.25;5034222;28;20037;-54
2022/09/08 02:49:06;;;;;;;19.80;7.70;;;;;;;21.40;61.30;101007.00;5045668;28;20025;-53
2022/09/08 02:51:33;;;;;;;26.63;8.35;;;;;;;21.27;62.30;101006.44;5050815;28;20028;-54
2022/09/08 02:53:59;;;;;;;24.58;8.77;;;;;;;21.30;61.79;101019.53;5039652;28;20546;-53
2022/09/08 02:56:25;;;;;;;27.65;8.13;;;;;;;21.09;62.17;101013.22;5051352;28;20044;-54
2022/09/08 02:58:53;;;;;;;25.63;7.85;;;;;;;21.18;61.97;101027.13;5051715;28;20182;-53
2022/09/08 03:01:19;;;;;;;23.63;8.20;;;;;;;20.87;63.18;101020.00;5051467;28;20033;-53
2022/09/08 03:03:46;;;;;;;26.42;8.05;;;;;;;20.81;63.45;101028.16;5050898;28;20028;-53
2022/09/08 03:06:12;;;;;;;21.30;7.57;;;;;;;20.73;63.86;101038.78;5033920;28;20373;-54
2022/09/08 03:08:38;;;;;;;29.98;7.72;;;;;;;20.80;63.85;101034.69;5043879;28;20025;-53
2022/09/08 03:11:05;;;;;;;24.17;7.30;;;;;;;20.77;63.74;101029.81;5032274;28;20065;-53
2022/09/08 03:13:31;;;;;;;18.48;7.78;;;;;;;20.62;64.13;101029.78;5045855;28;20116;-53
2022/09/08 03:15:58;;;;;;;21.67;7.95;;;;;;;20.81;63.62;101030.88;5051027;28;20159;-54
2022/09/08 03:18:25;;;;;;;20.98;7.32;;;;;;;20.67;63.87;101039.84;5051732;28;20087;-53
2022/09/08 03:21:06;;;;;;;19.80;7.57;;;;;;;20.64;64.29;101048.53;5050557;28;20413;-54
2022/09/08 03:23:33;;;;;;;29.02;8.50;;;;;;;20.75;63.95;101055.63;5038646;28;20025;-55
2022/09/08 03:26:25;;;;;;;21.77;7.18;;;;;;;20.67;64.32;101061.59;5031482;28;20030;-54
2022/09/08 03:28:52;;;;;;;24.95;7.43;;;;;;;20.46;65.75;101061.53;5045293;28;20045;-54
2022/09/08 03:31:20;;;;;;;20.23;7.45;;;;;;;20.45;65.51;101062.59;5051404;28;20116;-55
2022/09/08 03:33:47;;;;;;;26.63;8.25;;;;;;;20.58;64.60;101071.34;5034223;28;20032;-54
2022/09/08 03:36:15;;;;;;;27.70;8.55;;;;;;;20.77;63.71;101076.06;5031833;28;20037;-60
2022/09/08 03:38:42;;;;;;;18.27;7.55;;;;;;;20.81;63.78;101079.03;5030754;28;20034;-54
2022/09/08 03:41:12;;;;;;;21.42;8.18;;;;;;;20.87;63.71;101086.13;5043547;28;20082;-53
2022/09/08 03:43:43;;;;;;;25.92;7.97;;;;;;;20.70;63.96;101083.63;5053781;28;20071;-54
2022/09/08 03:46:10;;;;;;;26.48;8.35;;;;;;;20.69;64.19;101081.19;5041206;28;20037;-55
2022/09/08 03:48:36;;;;;;;19.65;8.32;;;;;;;20.56;64.44;101077.88;5035514;28;20095;-53
2022/09/08 03:51:13;;;;;;;24.15;8.10;;;;;;;20.65;64.51;101089.06;5039807;28;20025;-54
2022/09/08 03:53:41;;;;;;;28.10;7.47;;;;;;;20.73;64.12;101091.28;5035415;28;20052;-53
2022/09/08 03:56:09;;;;;;;25.02;7.38;;;;;;;20.64;64.70;101095.59;5048460;28;20493;-54
2022/09/08 03:58:37;;;;;;;23.52;7.80;;;;;;;20.65;65.13;101090.97;5054792;28;20395;-55
2022/09/08 04:01:10;;;;;;;22.48;8.02;;;;;;;20.72;64.32;101092.34;5052640;28;20028;-53
2022/09/08 04:03:37;;;;;;;21.83;8.43;;;;;;;20.60;64.53;101097.22;5043136;28;20611;-57
2022/09/08 04:06:04;;;;;;;27.60;8.95;;;;;;;20.89;64.09;101096.75;5054420;28;20082;-53
2022/09/08 04:08:30;;;;;;;25.08;7.50;;;;;;;20.96;63.32;101095.41;5053195;28;20009;-54
2022/09/08 04:10:57;;;;;;;22.95;7.93;;;;;;;20.79;63.86;101098.34;5050928;28;20036;-53
2022/09/08 04:13:24;;;;;;;24.42;7.05;;;;;;;20.73;63.98;101098.63;5052733;28;20017;-54
2022/09/08 04:15:50;;;;;;;29.83;8.15;;;;;;;20.81;63.44;101106.25;5053890;28;20028;-55
2022/09/08 04:18:16;;;;;;;22.75;7.45;;;;;;;20.80;63.66;101104.63;5052455;28;20032;-52
2022/09/08 04:20:43;;;;;;;19.70;7.68;;;;;;;20.94;63.51;101107.66;5045106;28;20102;-53
2022/09/08 04:23:09;;;;;;;26.77;8.45;;;;;;;20.90;64.24;101106.56;5041833;28;20025;-52
2022/09/08 04:25:36;;;;;;;23.35;8.05;;;;;;;20.71;64.82;101106.19;5034078;28;20479;-53
2022/09/08 04:28:03;;;;;;;21.45;8.30;;;;;;;20.87;64.19;101102.44;5038712;28;20022;-54
2022/09/08 04:30:29;;;;;;;24.40;7.72;;;;;;;20.78;64.73;101114.97;5034078;28;20029;-54
2022/09/08 04:32:56;;;;;;;28.08;8.82;;;;;;;20.87;64.33;101112.50;5049654;28;20032;-53
2022/09/08 04:35:22;;;;;;;22.42;8.57;;;;;;;20.67;65.81;101113.28;5053682;28;20035;-54
2022/09/08 04:37:48;;;;;;;21.80;7.68;;;;;;;20.75;65.18;101116.28;5050912;28;20131;-54
2022/09/08 04:40:14;;;;;;;20.50;7.88;;;;;;;20.82;64.40;101124.19;5051575;28;20035;-54
2022/09/08 04:42:41;;;;;;;21.95;8.38;;;;;;;20.76;64.63;101119.81;5052202;28;20112;-54
2022/09/08 04:45:07;;;;;;;26.60;7.78;;;;;;;20.31;66.19;101122.06;5053536;28;20025;-54
2022/09/08 04:47:34;;;;;;;25.27;7.90;;;;;;;20.51;65.65;101120.56;5048303;28;20024;-54
2022/09/08 04:50:00;;;;;;;18.20;7.93;;;;;;;20.55;65.53;101122.50;5054223;28;20099;-54
2022/09/08 04:52:26;;;;;;;23.00;7.95;;;;;;;20.56;65.30;101129.56;5046827;28;20118;-54
2022/09/08 04:54:52;;;;;;;27.48;8.40;;;;;;;20.37;66.27;101122.09;5042180;28;20060;-54
2022/09/08 04:57:20;;;;;;;29.35;8.52;;;;;;;20.44;65.72;101125.41;5046967;28;20033;-53
2022/09/08 04:59:46;;;;;;;26.20;9.23;;;;;;;20.56;65.56;101126.03;5039747;28;20108;-55
2022/09/08 05:02:13;;;;;;;28.05;8.77;;;;;;;20.48;66.16;101123.78;5049378;28;20032;-53
2022/09/08 05:04:39;;;;;;;28.40;9.30;;;;;;;20.48;66.06;101123.78;5052716;28;20418;-53
2022/09/08 05:07:05;;;;;;;25.40;8.07;;;;;;;20.51;66.07;101121.38;5043641;28;20017;-59
2022/09/08 05:09:31;;;;;;;20.00;8.35;;;;;;;20.66;65.75;101117.91;5041323;28;20120;-55
2022/09/08 05:11:58;;;;;;;23.88;9.38;;;;;;;20.51;66.65;101120.56;5044040;28;20029;-54
2022/09/08 05:14:24;;;;;;;23.88;8.18;;;;;;;20.30;67.29;101125.03;5040319;28;20108;-52
2022/09/08 05:16:50;;;;;;;26.20;9.27;;;;;;;20.43;66.61;101123.75;5033861;28;20025;-53
2022/09/08 05:19:17;;;;;;;23.23;8.18;;;;;;;20.44;66.98;101118.06;5034569;28;20071;-54
2022/09/08 05:21:43;;;;;;;22.15;8.48;;;;;;;20.49;66.85;101122.75;5033349;28;20029;-54
2022/09/08 05:24:09;;;;;;;26.63;8.85;;;;;;;20.33;66.89;101119.09;5033168;28;20444;-53
2022/09/08 05:26:36;;;;;;;27.15;9.48;;;;;;;20.13;67.37;101113.53;5032985;28;20029;-53
2022/09/08 05:29:03;;;;;;;28.10;8.65;;;;;;;20.24;66.89;101113.31;5033237;28;20097;-54
2022/09/08 05:31:30;;;;;;;22.38;8.48;;;;;;;20.30;66.97;101106.00;5033389;28;20040;-52
2022/09/08 05:33:58;;;;;;;23.75;8.35;;;;;;;20.07;67.99;101112.69;5033186;28;20026;-53
2022/09/08 05:36:35;;;;;;;26.83;8.80;;;;;;;20.21;67.20;101116.59;5032220;28;20041;-54
2022/09/08 05:39:05;;;;;;;35.60;9.63;;;;;;;20.13;67.72;101111.63;5033091;28;20018;-53
2022/09/08 05:41:32;;;;;;;25.90;8.57;;;;;;;20.03;67.80;101103.41;5032803;28;20022;-53
2022/09/08 05:43:59;;;;;;;26.00;7.93;;;;;;;20.00;68.32;101103.94;5033109;28;20036;-53
2022/09/08 05:46:27;;;;;;;24.42;7.93;;;;;;;20.18;67.55;101103.50;5032586;28;20438;-53
2022/09/08 05:49:01;;;;;;;28.25;8.35;;;;;;;19.93;68.37;101100.63;5033084;28;20068;-53
2022/09/08 05:51:27;;;;;;;24.58;7.82;;;;;;;19.90;68.33;101099.25;5032749;28;20028;-53
2022/09/08 05:53:58;;;;;;;20.25;7.90;;;;;;;19.88;68.30;101097.91;5032910;28;20292;-53
2022/09/08 05:56:24;;;;;;;25.73;7.97;;;;;;;20.04;67.80;101110.47;5032457;28;20352;-54
2022/09/08 05:58:57;;;;;;;25.15;8.20;;;;;;;20.05;67.35;101101.28;5032572;28;20025;-54
2022/09/08 06:01:24;;;;;;;22.55;8.63;;;;;;;19.91;67.89;101100.91;5031438;28;20041;-54
2022/09/08 06:03:52;;;;;;;22.92;8.35;;;;;;;19.92;67.87;101101.72;5035649;28;20068;-53
2022/09/08 06:06:18;;;;;;;31.55;9.07;;;;;;;20.01;67.69;101108.31;5031970;28;20030;-53
2022/09/08 06:08:45;;;;;;;24.48;8.98;;;;;;;19.99;67.60;101105.03;5030805;28;20029;-53
2022/09/08 06:11:11;;;;;;;22.80;8.35;;;;;;;19.86;68.20;101106.28;5032497;28;20075;-53
2022/09/08 06:13:38;;;;;;;26.92;9.32;;;;;;;19.92;68.05;101109.88;5031317;28;20065;-54
2022/09/08 06:16:13;;;;;;;24.27;9.60;;;;;;;19.68;68.36;101102.09;5032126;28;20550;-54
2022/09/08 06:18:41;;;;;;;27.05;8.88;;;;;;;19.71;68.25;101109.75;5032517;28;20061;-54
2022/09/08 06:21:14;;;;;;;25.63;8.95;;;;;;;19.76;68.43;101108.94;5031781;28;20387;-53
2022/09/08 06:23:41;;;;;;;29.67;8.45;;;;;;;19.99;67.31;101108.56;5032085;28;20486;-54
2022/09/08 06:26:16;;;;;;;21.73;7.97;;;;;;;19.98;67.68;101112.34;5031983;28;20036;-53
2022/09/08 06:28:45;;;;;;;;;;;;;;;19.92;67.23;101110.69;5031460;28;20091;-53
2022/09/08 06:31:14;;;;;;;20.55;7.80;;;;;;;19.83;67.58;101114.16;5032275;28;19917;-54
2022/09/08 06:33:42;;;;;;;17.63;7.35;;;;;;;19.95;67.27;101120.22;5034814;28;20375;-54
2022/09/08 06:36:19;;;;;;;23.85;8.50;;;;;;;19.85;67.41;101120.97;5051520;28;20044;-53
2022/09/08 06:38:53;;;;;;;26.65;7.47;;;;;;;19.73;67.92;101120.34;5017261;28;20040;-54
2022/09/08 06:41:29;;;;;;;22.35;8.93;;;;;;;19.77;67.84;101108.69;5051818;28;20021;-51
2022/09/08 06:44:04;;;;;;;21.58;8.48;;;;;;;19.83;67.53;101111.44;5051864;28;20021;-51
2022/09/08 06:46:36;;;;;;;23.45;8.52;;;;;;;19.65;68.56;101102.59;5051434;28;20553;-53
2022/09/08 06:49:03;;;;;;;23.38;7.60;;;;;;;19.53;69.20;101101.94;5048847;28;20033;-53
2022/09/08 06:52:02;;;;;;;28.52;8.45;;;;;;;19.27;69.94;101106.34;5031426;28;20111;-52
2022/09/08 06:55:25;;;;;;;23.92;8.60;;;;;;;19.41;69.81;101099.41;5048824;28;20033;-53
2022/09/08 06:58:11;;;;;;;21.42;8.18;;;;;;;19.43;69.23;101093.72;4989812;28;20488;-55
2022/09/08 07:01:24;;;;;;;30.00;8.82;;;;;;;19.44;69.55;101089.94;4988402;28;20044;-54
2022/09/08 07:04:32;;;;;;;24.58;8.50;;;;;;;19.30;69.74;101096.84;5032649;28;20030;-54
2022/09/08 07:07:37;;;;;;;20.10;8.27;;;;;;;19.32;69.65;101086.56;5031219;28;20060;-52
2022/09/08 07:10:24;;;;;;;31.73;9.60;;;;;;;19.18;70.32;101087.00;4951649;28;20435;-55
2022/09/08 07:13:13;;;;;;;21.92;8.50;;;;;;;19.21;69.67;101083.78;4951302;28;20031;-53
2022/09/08 07:15:47;;;;;;;20.83;9.05;;;;;;;19.31;69.44;101091.16;5013669;28;20042;-54
2022/09/08 07:18:22;;;;;;;19.50;8.20;;;;;;;19.29;69.59;101085.19;5034264;28;20083;-52
2022/09/08 07:20:49;;;;;;;21.13;8.07;;;;;;;19.24;70.04;101082.44;5044314;28;20116;-52
2022/09/08 07:23:36;;;;;;;27.17;8.63;;;;;;;19.35;69.74;101084.16;5044473;28;20133;-53
2022/09/08 07:26:08;;;;;;;21.77;8.18;;;;;;;19.28;70.25;101077.31;5045143;28;20036;-53
2022/09/08 07:28:42;;;;;;;26.50;8.35;;;;;;;19.49;69.42;101079.13;5043327;28;20032;-54
2022/09/08 07:31:18;;;;;;;18.70;8.50;;;;;;;19.57;69.00;101075.91;5037680;28;20030;-54
2022/09/08 07:33:48;;;;;;;31.45;9.32;;;;;;;19.43;69.62;101075.56;5040024;28;20025;-54
2022/09/08 07:36:27;;;;;;;21.40;8.82;;;;;;;19.34;70.00;101073.56;5047660;28;20037;-54
2022/09/08 07:39:00;;;;;;;24.88;7.50;;;;;;;19.18;70.42;101078.03;5033090;28;20112;-53
2022/09/08 07:41:44;;;;;;;23.67;8.52;;;;;;;19.17;70.99;101069.06;5037865;28;20056;-53
2022/09/08 07:44:16;;;;;;;25.42;8.13;;;;;;;19.37;70.50;101068.41;5042374;28;20063;-56
2022/09/08 07:47:16;;;;;;;24.20;8.65;;;;;;;19.47;69.93;101064.97;5042025;28;20032;-54
2022/09/08 07:49:57;;;;;;;23.05;8.38;;;;;;;19.36;70.46;101066.78;5050498;28;20029;-55
2022/09/08 07:52:54;;;;;;;19.13;8.57;;;;;;;19.21;70.55;101062.06;5033849;28;20052;-52
2022/09/08 07:55:32;;;;;;;22.50;8.93;;;;;;;19.01;71.29;101067.28;5034870;28;20030;-52
2022/09/08 07:57:58;;;;;;;22.23;8.48;;;;;;;19.18;70.70;101065.28;5034585;28;20498;-53
2022/09/08 08:00:53;;;;;;;20.90;9.27;;;;;;;19.17;70.63;101058.22;5038856;28;20033;-53
2022/09/08 08:03:33;;;;;;;20.05;8.18;;;;;;;19.16;70.77;101062.03;5044806;28;20040;-54
2022/09/08 08:06:11;;;;;;;23.58;8.27;;;;;;;19.12;71.16;101060.06;5033418;28;20534;-51
2022/09/08 08:09:10;;;;;;;25.60;8.63;;;;;;;19.24;70.42;101058.81;5033888;28;20036;-54
2022/09/08 08:11:49;;;;;;;24.33;9.05;;;;;;;19.18;70.46;101056.31;5035954;28;20033;-53
2022/09/08 08:14:36;;;;;;;28.42;8.80;;;;;;;19.07;71.09;101055.41;5043432;28;20369;-54
2022/09/08 08:17:13;;;;;;;20.17;8.05;;;;;;;19.13;71.04;101045.44;5036242;28;20555;-54
2022/09/08 08:19:51;;;;;;;23.23;8.52;;;;;;;19.09;71.80;101041.56;5041221;28;20033;-51
2022/09/08 08:22:35;;;;;;;26.33;8.50;;;;;;;19.05;71.50;101038.59;5044243;28;20017;-54
2022/09/08 08:25:23;;;;;;;25.77;8.48;;;;;;;19.04;71.76;101036.91;5044486;28;20052;-54
2022/09/08 08:28:17;;;;;;;26.10;8.57;;;;;;;19.03;71.45;101035.28;5039821;28;20124;-54
2022/09/08 08:31:17;;;;;;;23.98;8.18;;;;;;;19.01;71.62;101037.44;5029205;28;20121;-54
2022/09/08 08:33:49;;;;;;;19.83;8.85;;;;;;;19.06;71.45;101028.56;5032379;28;20045;-53
2022/09/08 08:36:20;;;;;;;26.33;8.40;;;;;;;19.12;71.39;101035.66;5037523;28;20112;-54
2022/09/08 08:38:53;;;;;;;20.83;7.35;;;;;;;19.22;71.40;101035.75;5044834;28;20056;-53
2022/09/08 08:41:22;;;;;;;25.00;8.40;;;;;;;19.05;72.36;101037.78;5040573;28;20052;-53
2022/09/08 08:44:12;;;;;;;19.15;7.10;;;;;;;18.90;73.08;101030.28;5044467;28;20128;-53
2022/09/08 08:47:08;;;;;;;22.33;7.72;;;;;;;19.08;72.10;101029.09;5036840;28;20061;-54
2022/09/08 08:50:12;;;;;;;15.95;7.40;;;;;;;18.90;72.46;101027.59;5051207;28;20035;-53
2022/09/08 08:53:10;;;;;;;23.35;8.55;;;;;;;19.02;72.54;101032.84;5034876;28;20037;-54
2022/09/08 08:56:04;;;;;;;18.73;7.88;;;;;;;18.83;73.30;101018.84;5050672;28;20035;-54
2022/09/08 08:58:54;;;;;;;25.92;8.98;;;;;;;18.76;73.61;101015.50;5053071;28;20098;-53
2022/09/08 09:01:34;;;;;;;17.60;8.70;;;;;;;18.83;73.32;101019.66;5034766;28;20029;-51
2022/09/08 09:04:30;;;;;;;25.65;8.68;;;;;;;18.72;73.97;101013.31;5040485;28;20033;-52
2022/09/08 09:07:15;;;;;;;20.50;7.65;;;;;;;18.80;74.21;101009.31;5042784;28;20063;-51
2022/09/08 09:10:12;;;;;;;20.83;7.57;;;;;;;18.79;74.15;101004.16;5051609;28;20082;-52
2022/09/08 09:12:48;;;;;;;24.92;7.55;;;;;;;18.68;74.84;101008.66;5033479;28;20037;-52
2022/09/08 09:15:40;;;;;;;31.40;9.52;;;;;;;18.74;74.29;100991.34;5032912;28;20033;-52
2022/09/08 09:18:26;;;;;;;23.30;8.73;;;;;;;18.77;74.25;100992.72;5032775;28;20052;-52
2022/09/08 09:20:56;;;;;;;;;;;;;;;18.55;75.04;100993.59;5033590;28;20523;-52
2022/09/08 09:23:37;;;;;;;24.98;9.43;;;;;;;18.68;74.49;100993.19;5042043;28;19912;-52
2022/09/08 09:26:21;;;;;;;24.38;8.70;;;;;;;18.63;74.34;100993.13;5032752;28;20041;-52
2022/09/08 09:29:01;;;;;;;18.42;8.52;;;;;;;18.74;73.70;100994.06;5031394;28;20437;-52
2022/09/08 09:32:04;;;;;;;18.20;8.30;;;;;;;18.48;74.88;100992.94;5039105;28;20033;-52
2022/09/08 09:34:58;;;;;;;20.92;8.68;;;;;;;18.59;74.65;100989.28;5046631;28;20067;-54
2022/09/08 09:37:51;;;;;;;25.90;9.02;;;;;;;18.63;74.89;100984.16;5054518;28;20143;-52
2022/09/08 09:40:38;;;;;;;20.98;8.73;;;;;;;18.67;74.26;100986.16;5070552;28;20021;-53
2022/09/08 09:43:33;;;;;;;29.23;9.30;;;;;;;18.52;74.82;100983.25;5032053;28;20029;-53
2022/09/08 09:46:23;;;;;;;21.52;8.93;;;;;;;18.53;74.77;100982.16;5033712;28;20456;-53
2022/09/08 09:49:31;;;;;;;23.17;8.85;;;;;;;18.76;74.70;100975.63;5033036;28;20042;-51
2022/09/08 09:52:22;;;;;;;19.33;7.90;;;;;;;18.69;74.68;100972.31;5030495;28;20120;-52
2022/09/08 09:55:06;;;;;;;25.00;9.32;;;;;;;18.76;74.15;100972.94;5032771;28;20472;-53
2022/09/08 09:57:58;;;;;;;26.02;9.25;;;;;;;19.01;73.38;100966.91;5049902;28;20020;-52
2022/09/08 10:00:27;;;;;;;26.70;9.38;;;;;;;18.87;73.92;100966.53;5034900;28;20040;-53
2022/09/08 10:03:36;;;;;;;24.45;8.43;;;;;;;18.94;73.60;100972.56;5039969;28;20471;-52
2022/09/08 10:06:36;;;;;;;22.17;9.13;;;;;;;18.90;73.85;100971.44;5051864;28;20036;-52
2022/09/08 10:09:13;;;;;;;22.42;9.10;;;;;;;18.91;73.75;100970.34;5033565;28;20061;-51
2022/09/08 10:11:58;;;;;;;25.00;9.32;;;;;;;18.79;74.97;100967.00;5032513;28;20798;-52
2022/09/08 10:14:24;;;;;;;25.63;9.48;;;;;;;18.78;74.58;100970.78;5032401;28;20041;-52
2022/09/08 10:17:06;;;;;;;25.55;9.15;;;;;;;18.85;74.50;100976.81;5044690;28;20044;-50
2022/09/08 10:20:05;;;;;;;26.55;8.13;;;;;;;18.93;73.83;100970.09;5052637;28;20109;-52
2022/09/08 10:22:40;;;;;;;18.10;8.15;;;;;;;18.90;74.09;100970.63;5033246;28;20373;-53
2022/09/08 10:25:15;;;;;;;19.02;8.70;;;;;;;18.93;73.61;100957.38;5032024;28;20021;-52
2022/09/08 10:27:47;;;;;;;;;;;;;;;19.05;73.49;100959.91;5032632;28;20124;-52
2022/09/08 10:30:37;;;;;;;27.23;9.38;;;;;;;19.12;73.11;100959.69;5032492;28;19931;-53
2022/09/08 10:33:18;;;;;;;21.20;8.82;;;;;;;19.25;72.28;100959.22;5032138;28;20059;-53
2022/09/08 10:35:52;;;;;;;32.95;9.18;;;;;;;19.27;71.96;100957.09;5048475;28;20040;-52
2022/09/08 10:38:46;;;;;;;22.27;8.43;;;;;;;19.15;72.20;100951.00;5051899;28;20044;-52
2022/09/08 10:41:40;;;;;;;21.70;9.48;;;;;;;19.02;72.52;100946.03;5031511;28;20048;-52
2022/09/08 10:44:33;;;;;;;19.92;8.60;;;;;;;19.04;72.69;100946.59;5031775;28;20033;-53
2022/09/08 10:47:18;;;;;;;19.27;9.02;;;;;;;19.15;72.37;100946.41;5031867;28;20045;-51
2022/09/08 10:50:10;;;;;;;22.52;8.35;;;;;;;18.99;72.93;100952.81;5031143;28;20487;-52
2022/09/08 10:52:51;;;;;;;20.65;8.70;;;;;;;19.04;73.02;100950.09;5031990;28;20030;-53
2022/09/08 10:55:29;;;;;;;18.88;8.15;;;;;;;18.86;73.12;100945.09;5031512;28;20033;-52
2022/09/08 10:58:42;;;;;;;21.83;8.23;;;;;;;19.05;72.36;100940.09;5032145;28;20476;-51
2022/09/08 11:01:39;;;;;;;26.05;9.07;;;;;;;19.11;72.92;100931.75;5023100;28;20115;-50
2022/09/08 11:04:48;;;;;;;20.33;8.60;;;;;;;18.95;72.88;100936.22;5032258;28;20116;-52
2022/09/08 11:07:26;;;;;;;19.60;8.02;;;;;;;18.92;73.01;100925.88;5031417;28;20388;-51
2022/09/08 11:10:22;;;;;;;22.23;8.55;;;;;;;19.16;72.42;100934.50;5032817;28;20026;-51
2022/09/08 11:13:24;;;;;;;19.80;8.18;;;;;;;18.80;73.21;100927.13;5043148;28;20106;-49
2022/09/08 11:16:08;;;;;;;18.25;8.38;;;;;;;18.85;73.61;100925.28;5013718;28;20034;-52
2022/09/08 11:18:38;;;;;;;23.92;9.48;;;;;;;18.99;73.39;100926.50;5050226;28;20045;-52
2022/09/08 11:21:22;;;;;;;25.48;9.20;;;;;;;18.91;73.34;100926.97;5030090;28;20088;-51
2022/09/08 11:24:00;;;;;;;30.98;9.73;;;;;;;18.96;73.62;100934.31;5030757;28;20100;-51
2022/09/08 11:26:54;;;;;;;21.20;8.38;;;;;;;18.86;73.67;100926.91;5030075;28;20137;-51
2022/09/08 11:29:33;;;;;;;20.10;8.48;;;;;;;18.83;73.85;100926.63;5030021;28;20305;-52
2022/09/08 11:32:14;;;;;;;19.88;8.57;;;;;;;18.83;73.57;100929.34;5032939;28;20036;-50
2022/09/08 11:34:43;;;;;;;19.67;9.00;;;;;;;18.77;74.02;100923.06;5045198;28;20040;-51
2022/09/08 11:37:44;;;;;;;23.58;9.23;;;;;;;18.93;73.47;100915.84;5044022;28;20127;-52
2022/09/08 11:40:52;;;;;;;19.90;8.10;;;;;;;18.95;73.61;100911.81;5032740;28;20050;-49
2022/09/08 11:43:39;;;;;;;17.02;7.68;;;;;;;18.77;73.91;100916.81;5045743;28;20467;-50
2022/09/08 11:46:13;;;;;;;23.73;9.40;;;;;;;18.45;74.91;100904.84;5044347;28;20044;-48
2022/09/08 11:48:40;;;;;;;20.98;8.98;;;;;;;18.60;74.20;100912.31;5033205;28;20038;-52
2022/09/08 11:51:19;;;;;;;23.80;9.82;;;;;;;18.68;74.00;100911.03;5036742;28;20041;-50
2022/09/08 11:53:49;;;;;;;23.15;8.63;;;;;;;18.53;74.29;100913.59;5051570;28;20037;-49
2022/09/08 11:56:40;;;;;;;20.45;8.38;;;;;;;18.71;74.18;100905.94;5038318;28;20030;-51
2022/09/08 11:59:34;;;;;;;25.50;9.07;;;;;;;18.41;75.15;100902.91;5034721;28;20036;-49
2022/09/08 12:02:33;;;;;;;24.55;8.23;;;;;;;18.35;75.62;100898.50;5040032;28;20029;-50